sensor_id;sensor_type;location;lat;lon;timestamp;temperature;humidity
62912;DHT22;49111;51.028;4.218;2022-07-29T00:00:44;19.90;82.20
62912;DHT22;49111;51.028;4.218;2022-07-29T00:03:11;19.90;82.50
62912;DHT22;49111;51.028;4.218;2022-07-29T00:05:39;19.90;81.40
62912;DHT22;49111;51.028;4.218;2022-07-29T00:08:06;19.90;82.20
62912;DHT22;49111;51.028;4.218;2022-07-29T00:10:32;19.90;82.10
62912;DHT22;49111;51.028;4.218;2022-07-29T00:12:58;19.90;82.20
62912;DHT22;49111;51.028;4.218;2022-07-29T00:15:24;19.90;82.30
62912;DHT22;49111;51.028;4.218;2022-07-29T00:17:50;19.90;82.50
62912;DHT22;49111;51.028;4.218;2022-07-29T00:20:16;19.90;81.70
62912;DHT22;49111;51.028;4.218;2022-07-29T00:22:42;19.80;82.00
62912;DHT22;49111;51.028;4.218;2022-07-29T00:25:08;19.80;83.20
62912;DHT22;49111;51.028;4.218;2022-07-29T00:27:35;19.80;82.40
62912;DHT22;49111;51.028;4.218;2022-07-29T00:30:02;19.80;82.80
62912;DHT22;49111;51.028;4.218;2022-07-29T00:32:28;19.80;82.40
62912;DHT22;49111;51.028;4.218;2022-07-29T00:34:53;19.80;82.80
62912;DHT22;49111;51.028;4.218;2022-07-29T00:37:38;19.80;83.40
62912;DHT22;49111;51.028;4.218;2022-07-29T00:40:04;19.70;83.80
62912;DHT22;49111;51.028;4.218;2022-07-29T00:42:30;19.70;83.90
62912;DHT22;49111;51.028;4.218;2022-07-29T00:44:56;19.70;84.20
62912;DHT22;49111;51.028;4.218;2022-07-29T00:47:21;19.70;84.90
62912;DHT22;49111;51.028;4.218;2022-07-29T00:49:47;19.70;84.70
62912;DHT22;49111;51.028;4.218;2022-07-29T00:52:13;19.70;84.50
62912;DHT22;49111;51.028;4.218;2022-07-29T00:54:39;19.60;84.30
62912;DHT22;49111;51.028;4.218;2022-07-29T00:57:08;19.60;84.10
62912;DHT22;49111;51.028;4.218;2022-07-29T00:59:34;19.50;84.60
62912;DHT22;49111;51.028;4.218;2022-07-29T01:02:00;19.50;85.10
62912;DHT22;49111;51.028;4.218;2022-07-29T01:04:26;19.50;85.20
62912;DHT22;49111;51.028;4.218;2022-07-29T01:06:52;19.50;85.50
62912;DHT22;49111;51.028;4.218;2022-07-29T01:09:19;19.50;85.00
62912;DHT22;49111;51.028;4.218;2022-07-29T01:11:46;19.50;84.00
62912;DHT22;49111;51.028;4.218;2022-07-29T01:14:15;19.50;84.70
62912;DHT22;49111;51.028;4.218;2022-07-29T01:17:06;19.50;84.90
62912;DHT22;49111;51.028;4.218;2022-07-29T01:28:08;19.50;85.80
62912;DHT22;49111;51.028;4.218;2022-07-29T01:30:38;19.40;86.10
62912;DHT22;49111;51.028;4.218;2022-07-29T01:33:10;19.40;85.40
62912;DHT22;49111;51.028;4.218;2022-07-29T01:35:57;19.40;85.90
62912;DHT22;49111;51.028;4.218;2022-07-29T01:38:25;19.30;86.10
62912;DHT22;49111;51.028;4.218;2022-07-29T01:41:07;19.20;86.10
62912;DHT22;49111;51.028;4.218;2022-07-29T01:44:23;19.30;85.80
62912;DHT22;49111;51.028;4.218;2022-07-29T01:46:55;19.20;86.00
62912;DHT22;49111;51.028;4.218;2022-07-29T01:49:35;19.20;86.50
62912;DHT22;49111;51.028;4.218;2022-07-29T01:52:05;19.10;86.80
62912;DHT22;49111;51.028;4.218;2022-07-29T01:54:43;19.10;87.10
62912;DHT22;49111;51.028;4.218;2022-07-29T01:57:15;19.00;87.20
62912;DHT22;49111;51.028;4.218;2022-07-29T01:59:46;18.90;87.10
62912;DHT22;49111;51.028;4.218;2022-07-29T02:02:15;18.90;87.40
62912;DHT22;49111;51.028;4.218;2022-07-29T02:04:43;18.80;87.80
62912;DHT22;49111;51.028;4.218;2022-07-29T02:07:15;18.70;87.60
62912;DHT22;49111;51.028;4.218;2022-07-29T02:09:42;18.70;88.20
62912;DHT22;49111;51.028;4.218;2022-07-29T02:12:10;18.60;88.60
62912;DHT22;49111;51.028;4.218;2022-07-29T02:14:41;18.50;88.20
62912;DHT22;49111;51.028;4.218;2022-07-29T02:17:08;18.50;88.30
62912;DHT22;49111;51.028;4.218;2022-07-29T02:19:36;18.40;87.80
62912;DHT22;49111;51.028;4.218;2022-07-29T02:22:04;18.40;88.30
62912;DHT22;49111;51.028;4.218;2022-07-29T02:24:31;18.30;89.10
62912;DHT22;49111;51.028;4.218;2022-07-29T02:26:58;18.30;89.10
62912;DHT22;49111;51.028;4.218;2022-07-29T02:29:26;18.20;89.00
62912;DHT22;49111;51.028;4.218;2022-07-29T02:31:55;18.10;88.80
62912;DHT22;49111;51.028;4.218;2022-07-29T02:34:23;18.00;89.40
62912;DHT22;49111;51.028;4.218;2022-07-29T02:36:56;18.00;89.70
62912;DHT22;49111;51.028;4.218;2022-07-29T02:39:22;17.90;89.40
62912;DHT22;49111;51.028;4.218;2022-07-29T02:41:57;17.90;89.60
62912;DHT22;49111;51.028;4.218;2022-07-29T02:44:25;17.90;89.80
62912;DHT22;49111;51.028;4.218;2022-07-29T02:49:42;17.90;89.60
62912;DHT22;49111;51.028;4.218;2022-07-29T03:00:07;17.80;90.30
62912;DHT22;49111;51.028;4.218;2022-07-29T03:02:36;17.70;90.40
62912;DHT22;49111;51.028;4.218;2022-07-29T03:05:04;17.70;90.40
62912;DHT22;49111;51.028;4.218;2022-07-29T03:07:31;17.70;90.50
62912;DHT22;49111;51.028;4.218;2022-07-29T03:09:59;17.60;90.50
62912;DHT22;49111;51.028;4.218;2022-07-29T03:12:26;17.60;90.50
62912;DHT22;49111;51.028;4.218;2022-07-29T03:14:53;17.60;90.70
62912;DHT22;49111;51.028;4.218;2022-07-29T03:17:20;17.50;90.80
62912;DHT22;49111;51.028;4.218;2022-07-29T03:19:47;17.50;90.80
62912;DHT22;49111;51.028;4.218;2022-07-29T03:22:13;17.40;90.80
62912;DHT22;49111;51.028;4.218;2022-07-29T03:24:39;17.40;90.90
62912;DHT22;49111;51.028;4.218;2022-07-29T03:27:05;17.40;91.10
62912;DHT22;49111;51.028;4.218;2022-07-29T03:29:31;17.40;91.10
62912;DHT22;49111;51.028;4.218;2022-07-29T03:31:57;17.30;90.90
62912;DHT22;49111;51.028;4.218;2022-07-29T03:34:23;17.20;91.00
62912;DHT22;49111;51.028;4.218;2022-07-29T03:36:49;17.10;91.10
62912;DHT22;49111;51.028;4.218;2022-07-29T03:39:21;17.10;91.20
62912;DHT22;49111;51.028;4.218;2022-07-29T03:41:50;17.00;91.30
62912;DHT22;49111;51.028;4.218;2022-07-29T03:44:17;16.90;91.50
62912;DHT22;49111;51.028;4.218;2022-07-29T03:46:45;16.80;91.60
62912;DHT22;49111;51.028;4.218;2022-07-29T03:49:12;16.80;91.70
62912;DHT22;49111;51.028;4.218;2022-07-29T03:51:40;16.70;91.80
62912;DHT22;49111;51.028;4.218;2022-07-29T03:54:06;16.70;91.90
62912;DHT22;49111;51.028;4.218;2022-07-29T03:56:35;16.70;92.00
62912;DHT22;49111;51.028;4.218;2022-07-29T03:59:03;16.60;92.00
62912;DHT22;49111;51.028;4.218;2022-07-29T04:01:29;16.60;92.10
62912;DHT22;49111;51.028;4.218;2022-07-29T04:03:57;16.50;92.30
62912;DHT22;49111;51.028;4.218;2022-07-29T04:06:23;16.50;92.30
62912;DHT22;49111;51.028;4.218;2022-07-29T04:08:51;16.50;92.30
62912;DHT22;49111;51.028;4.218;2022-07-29T04:11:17;16.50;92.30
62912;DHT22;49111;51.028;4.218;2022-07-29T04:13:43;16.40;92.40
62912;DHT22;49111;51.028;4.218;2022-07-29T04:16:08;16.40;92.50
62912;DHT22;49111;51.028;4.218;2022-07-29T04:18:34;16.40;92.80
62912;DHT22;49111;51.028;4.218;2022-07-29T04:21:00;16.40;92.70
62912;DHT22;49111;51.028;4.218;2022-07-29T04:23:28;16.50;92.70
62912;DHT22;49111;51.028;4.218;2022-07-29T04:25:54;16.50;92.80
62912;DHT22;49111;51.028;4.218;2022-07-29T04:28:20;16.50;92.80
62912;DHT22;49111;51.028;4.218;2022-07-29T04:30:46;16.50;93.10
62912;DHT22;49111;51.028;4.218;2022-07-29T04:33:11;16.60;93.20
62912;DHT22;49111;51.028;4.218;2022-07-29T04:35:38;16.60;93.30
62912;DHT22;49111;51.028;4.218;2022-07-29T04:38:04;16.60;93.40
62912;DHT22;49111;51.028;4.218;2022-07-29T04:40:31;16.60;93.60
62912;DHT22;49111;51.028;4.218;2022-07-29T04:42:59;16.60;93.60
62912;DHT22;49111;51.028;4.218;2022-07-29T04:45:25;16.60;93.60
62912;DHT22;49111;51.028;4.218;2022-07-29T04:47:50;16.70;93.60
62912;DHT22;49111;51.028;4.218;2022-07-29T04:50:16;16.60;93.70
62912;DHT22;49111;51.028;4.218;2022-07-29T04:52:43;16.70;93.80
62912;DHT22;49111;51.028;4.218;2022-07-29T04:55:09;16.60;93.90
62912;DHT22;49111;51.028;4.218;2022-07-29T04:57:35;16.70;94.20
62912;DHT22;49111;51.028;4.218;2022-07-29T05:00:00;16.60;94.00
62912;DHT22;49111;51.028;4.218;2022-07-29T05:02:26;16.60;93.90
62912;DHT22;49111;51.028;4.218;2022-07-29T05:04:52;16.60;94.10
62912;DHT22;49111;51.028;4.218;2022-07-29T05:07:18;16.60;94.10
62912;DHT22;49111;51.028;4.218;2022-07-29T05:09:43;16.60;94.10
62912;DHT22;49111;51.028;4.218;2022-07-29T05:12:09;16.60;94.20
62912;DHT22;49111;51.028;4.218;2022-07-29T05:14:35;16.60;94.30
62912;DHT22;49111;51.028;4.218;2022-07-29T05:17:01;16.60;94.40
62912;DHT22;49111;51.028;4.218;2022-07-29T05:19:26;16.60;94.60
62912;DHT22;49111;51.028;4.218;2022-07-29T05:21:53;16.60;94.70
62912;DHT22;49111;51.028;4.218;2022-07-29T05:24:19;16.60;94.80
62912;DHT22;49111;51.028;4.218;2022-07-29T05:26:45;16.60;95.00
62912;DHT22;49111;51.028;4.218;2022-07-29T05:29:11;16.70;95.10
62912;DHT22;49111;51.028;4.218;2022-07-29T05:31:36;16.80;95.10
62912;DHT22;49111;51.028;4.218;2022-07-29T05:34:02;16.80;95.20
62912;DHT22;49111;51.028;4.218;2022-07-29T05:36:28;17.00;95.20
62912;DHT22;49111;51.028;4.218;2022-07-29T05:38:53;17.10;95.30
62912;DHT22;49111;51.028;4.218;2022-07-29T05:41:19;17.20;95.20
62912;DHT22;49111;51.028;4.218;2022-07-29T05:43:45;17.30;95.60
62912;DHT22;49111;51.028;4.218;2022-07-29T05:46:11;17.50;95.10
62912;DHT22;49111;51.028;4.218;2022-07-29T05:48:37;17.70;94.80
62912;DHT22;49111;51.028;4.218;2022-07-29T05:51:03;17.70;94.20
62912;DHT22;49111;51.028;4.218;2022-07-29T05:53:28;17.90;93.80
62912;DHT22;49111;51.028;4.218;2022-07-29T05:55:54;18.00;93.40
62912;DHT22;49111;51.028;4.218;2022-07-29T05:58:20;18.10;93.60
62912;DHT22;49111;51.028;4.218;2022-07-29T06:00:46;18.20;93.60
62912;DHT22;49111;51.028;4.218;2022-07-29T06:03:12;18.30;93.10
62912;DHT22;49111;51.028;4.218;2022-07-29T06:05:37;18.30;92.90
62912;DHT22;49111;51.028;4.218;2022-07-29T06:08:04;18.20;92.50
62912;DHT22;49111;51.028;4.218;2022-07-29T06:10:34;18.10;93.40
62912;DHT22;49111;51.028;4.218;2022-07-29T06:13:01;18.10;93.00
62912;DHT22;49111;51.028;4.218;2022-07-29T06:15:26;18.10;92.70
62912;DHT22;49111;51.028;4.218;2022-07-29T06:17:52;18.20;92.70
62912;DHT22;49111;51.028;4.218;2022-07-29T06:20:18;18.30;92.20
62912;DHT22;49111;51.028;4.218;2022-07-29T06:22:44;18.40;92.50
62912;DHT22;49111;51.028;4.218;2022-07-29T06:25:10;18.40;92.40
62912;DHT22;49111;51.028;4.218;2022-07-29T06:27:36;18.50;92.00
62912;DHT22;49111;51.028;4.218;2022-07-29T06:30:03;18.50;92.20
62912;DHT22;49111;51.028;4.218;2022-07-29T06:32:29;18.60;92.00
62912;DHT22;49111;51.028;4.218;2022-07-29T06:34:56;18.60;91.80
62912;DHT22;49111;51.028;4.218;2022-07-29T06:37:22;18.60;92.10
62912;DHT22;49111;51.028;4.218;2022-07-29T06:39:48;18.60;91.90
62912;DHT22;49111;51.028;4.218;2022-07-29T06:42:13;18.60;91.70
62912;DHT22;49111;51.028;4.218;2022-07-29T06:44:40;18.50;91.60
62912;DHT22;49111;51.028;4.218;2022-07-29T06:47:07;18.50;91.70
62912;DHT22;49111;51.028;4.218;2022-07-29T06:49:33;18.50;92.30
62912;DHT22;49111;51.028;4.218;2022-07-29T06:51:58;18.40;91.90
62912;DHT22;49111;51.028;4.218;2022-07-29T06:54:24;18.50;91.60
62912;DHT22;49111;51.028;4.218;2022-07-29T06:56:50;18.60;91.70
62912;DHT22;49111;51.028;4.218;2022-07-29T06:59:16;18.70;91.50
62912;DHT22;49111;51.028;4.218;2022-07-29T07:01:42;18.80;91.70
62912;DHT22;49111;51.028;4.218;2022-07-29T07:04:09;18.90;91.40
62912;DHT22;49111;51.028;4.218;2022-07-29T07:06:35;19.00;91.30
62912;DHT22;49111;51.028;4.218;2022-07-29T07:09:01;19.20;91.20
62912;DHT22;49111;51.028;4.218;2022-07-29T07:11:27;19.40;90.90
62912;DHT22;49111;51.028;4.218;2022-07-29T07:13:53;19.60;90.70
62912;DHT22;49111;51.028;4.218;2022-07-29T07:16:19;19.70;90.60
62912;DHT22;49111;51.028;4.218;2022-07-29T07:18:45;19.90;90.50
62912;DHT22;49111;51.028;4.218;2022-07-29T07:21:11;20.10;90.80
62912;DHT22;49111;51.028;4.218;2022-07-29T07:23:37;20.30;90.40
62912;DHT22;49111;51.028;4.218;2022-07-29T07:26:03;20.30;90.20
62912;DHT22;49111;51.028;4.218;2022-07-29T07:28:31;20.50;89.70
62912;DHT22;49111;51.028;4.218;2022-07-29T07:30:57;20.60;89.80
62912;DHT22;49111;51.028;4.218;2022-07-29T07:33:23;20.70;88.40
62912;DHT22;49111;51.028;4.218;2022-07-29T07:35:49;20.70;87.70
62912;DHT22;49111;51.028;4.218;2022-07-29T07:38:14;20.80;87.70
62912;DHT22;49111;51.028;4.218;2022-07-29T07:40:41;20.80;88.00
62912;DHT22;49111;51.028;4.218;2022-07-29T07:43:06;20.90;87.80
62912;DHT22;49111;51.028;4.218;2022-07-29T07:45:32;21.00;87.70
62912;DHT22;49111;51.028;4.218;2022-07-29T07:47:58;21.20;88.40
62912;DHT22;49111;51.028;4.218;2022-07-29T07:50:24;21.30;88.90
62912;DHT22;49111;51.028;4.218;2022-07-29T07:52:52;21.30;86.40
62912;DHT22;49111;51.028;4.218;2022-07-29T07:55:18;21.20;87.10
62912;DHT22;49111;51.028;4.218;2022-07-29T07:57:45;21.30;86.90
62912;DHT22;49111;51.028;4.218;2022-07-29T08:00:13;21.40;86.40
62912;DHT22;49111;51.028;4.218;2022-07-29T08:02:39;21.40;86.80
62912;DHT22;49111;51.028;4.218;2022-07-29T08:05:06;21.30;87.20
62912;DHT22;49111;51.028;4.218;2022-07-29T08:07:33;21.40;87.80
62912;DHT22;49111;51.028;4.218;2022-07-29T08:09:59;21.60;87.70
62912;DHT22;49111;51.028;4.218;2022-07-29T08:12:26;21.60;88.40
62912;DHT22;49111;51.028;4.218;2022-07-29T08:14:52;21.60;87.00
62912;DHT22;49111;51.028;4.218;2022-07-29T08:17:18;21.50;87.20
62912;DHT22;49111;51.028;4.218;2022-07-29T08:19:44;21.40;88.00
62912;DHT22;49111;51.028;4.218;2022-07-29T08:22:10;21.40;88.30
62912;DHT22;49111;51.028;4.218;2022-07-29T08:24:35;21.30;88.00
62912;DHT22;49111;51.028;4.218;2022-07-29T08:27:18;21.40;89.60
62912;DHT22;49111;51.028;4.218;2022-07-29T08:29:44;21.30;88.60
62912;DHT22;49111;51.028;4.218;2022-07-29T08:32:10;21.30;89.20
62912;DHT22;49111;51.028;4.218;2022-07-29T08:34:36;21.40;88.20
62912;DHT22;49111;51.028;4.218;2022-07-29T08:37:01;21.30;89.20
62912;DHT22;49111;51.028;4.218;2022-07-29T08:39:28;21.30;89.10
62912;DHT22;49111;51.028;4.218;2022-07-29T08:41:54;21.40;88.60
62912;DHT22;49111;51.028;4.218;2022-07-29T08:44:20;21.30;89.40
62912;DHT22;49111;51.028;4.218;2022-07-29T08:46:48;21.30;88.90
62912;DHT22;49111;51.028;4.218;2022-07-29T08:49:15;21.30;88.10
62912;DHT22;49111;51.028;4.218;2022-07-29T08:51:41;21.30;87.80
62912;DHT22;49111;51.028;4.218;2022-07-29T08:54:08;21.40;85.80
62912;DHT22;49111;51.028;4.218;2022-07-29T08:56:35;21.20;85.40
62912;DHT22;49111;51.028;4.218;2022-07-29T08:59:03;21.40;86.90
62912;DHT22;49111;51.028;4.218;2022-07-29T09:01:32;21.40;86.40
62912;DHT22;49111;51.028;4.218;2022-07-29T09:03:59;21.50;86.30
62912;DHT22;49111;51.028;4.218;2022-07-29T09:06:31;21.50;85.60
62912;DHT22;49111;51.028;4.218;2022-07-29T09:09:00;21.60;85.20
62912;DHT22;49111;51.028;4.218;2022-07-29T09:11:26;21.70;86.00
62912;DHT22;49111;51.028;4.218;2022-07-29T09:13:52;21.80;85.30
62912;DHT22;49111;51.028;4.218;2022-07-29T09:16:18;21.80;83.90
62912;DHT22;49111;51.028;4.218;2022-07-29T09:18:45;21.90;83.10
62912;DHT22;49111;51.028;4.218;2022-07-29T09:21:16;21.90;84.60
62912;DHT22;49111;51.028;4.218;2022-07-29T09:24:03;22.00;83.80
62912;DHT22;49111;51.028;4.218;2022-07-29T09:26:30;22.10;83.20
62912;DHT22;49111;51.028;4.218;2022-07-29T09:28:57;22.10;83.10
62912;DHT22;49111;51.028;4.218;2022-07-29T09:31:33;22.00;82.50
62912;DHT22;49111;51.028;4.218;2022-07-29T09:34:04;22.00;83.30
62912;DHT22;49111;51.028;4.218;2022-07-29T09:36:30;22.10;84.30
62912;DHT22;49111;51.028;4.218;2022-07-29T09:39:02;22.20;82.10
62912;DHT22;49111;51.028;4.218;2022-07-29T09:41:29;22.40;82.70
62912;DHT22;49111;51.028;4.218;2022-07-29T09:43:56;22.60;82.10
62912;DHT22;49111;51.028;4.218;2022-07-29T09:46:24;22.80;81.50
62912;DHT22;49111;51.028;4.218;2022-07-29T09:49:06;22.90;80.10
62912;DHT22;49111;51.028;4.218;2022-07-29T09:51:32;23.10;80.40
62912;DHT22;49111;51.028;4.218;2022-07-29T09:53:58;23.20;78.80
62912;DHT22;49111;51.028;4.218;2022-07-29T09:56:39;23.10;78.00
62912;DHT22;49111;51.028;4.218;2022-07-29T09:59:07;23.10;76.30
62912;DHT22;49111;51.028;4.218;2022-07-29T10:01:33;23.20;78.10
62912;DHT22;49111;51.028;4.218;2022-07-29T10:03:59;23.30;78.20
62912;DHT22;49111;51.028;4.218;2022-07-29T10:06:25;23.50;77.40
62912;DHT22;49111;51.028;4.218;2022-07-29T10:08:51;23.60;75.90
62912;DHT22;49111;51.028;4.218;2022-07-29T10:11:18;23.70;76.30
62912;DHT22;49111;51.028;4.218;2022-07-29T10:13:46;23.90;75.90
62912;DHT22;49111;51.028;4.218;2022-07-29T10:16:13;24.10;75.80
62912;DHT22;49111;51.028;4.218;2022-07-29T10:18:43;24.00;74.20
62912;DHT22;49111;51.028;4.218;2022-07-29T10:21:09;23.90;74.10
62912;DHT22;49111;51.028;4.218;2022-07-29T10:23:36;24.00;73.70
62912;DHT22;49111;51.028;4.218;2022-07-29T10:26:03;24.10;73.20
62912;DHT22;49111;51.028;4.218;2022-07-29T10:28:32;24.20;74.20
62912;DHT22;49111;51.028;4.218;2022-07-29T10:31:02;24.30;73.50
62912;DHT22;49111;51.028;4.218;2022-07-29T10:34:03;24.40;70.70
62912;DHT22;49111;51.028;4.218;2022-07-29T10:42:20;24.70;71.10
62912;DHT22;49111;51.028;4.218;2022-07-29T10:44:50;24.90;69.90
62912;DHT22;49111;51.028;4.218;2022-07-29T10:47:26;25.00;70.20
62912;DHT22;49111;51.028;4.218;2022-07-29T10:50:10;25.20;69.70
62912;DHT22;49111;51.028;4.218;2022-07-29T10:52:56;25.20;69.10
62912;DHT22;49111;51.028;4.218;2022-07-29T10:55:36;25.20;70.70
62912;DHT22;49111;51.028;4.218;2022-07-29T10:58:17;25.30;69.30
62912;DHT22;49111;51.028;4.218;2022-07-29T11:00:43;25.50;68.70
62912;DHT22;49111;51.028;4.218;2022-07-29T11:03:09;25.70;68.80
62912;DHT22;49111;51.028;4.218;2022-07-29T11:05:55;25.80;67.40
62912;DHT22;49111;51.028;4.218;2022-07-29T11:08:22;25.90;66.90
62912;DHT22;49111;51.028;4.218;2022-07-29T11:11:29;26.00;67.00
62912;DHT22;49111;51.028;4.218;2022-07-29T11:13:47;26.20;66.20
62912;DHT22;49111;51.028;4.218;2022-07-29T11:16:18;26.30;67.40
62912;DHT22;49111;51.028;4.218;2022-07-29T11:21:44;26.80;63.80
62912;DHT22;49111;51.028;4.218;2022-07-29T11:24:21;26.80;64.60
62912;DHT22;49111;51.028;4.218;2022-07-29T11:29:39;26.60;63.70
62912;DHT22;49111;51.028;4.218;2022-07-29T11:32:11;26.60;64.30
62912;DHT22;49111;51.028;4.218;2022-07-29T11:34:37;26.70;64.00
62912;DHT22;49111;51.028;4.218;2022-07-29T11:47:42;27.40;61.80
62912;DHT22;49111;51.028;4.218;2022-07-29T11:50:14;27.30;60.70
62912;DHT22;49111;51.028;4.218;2022-07-29T11:52:41;27.20;62.00
62912;DHT22;49111;51.028;4.218;2022-07-29T11:55:20;27.00;61.60
62912;DHT22;49111;51.028;4.218;2022-07-29T12:02:54;27.40;60.60
62912;DHT22;49111;51.028;4.218;2022-07-29T12:05:21;27.30;59.90
62912;DHT22;49111;51.028;4.218;2022-07-29T12:07:47;27.40;59.70
62912;DHT22;49111;51.028;4.218;2022-07-29T12:10:14;27.60;59.60
62912;DHT22;49111;51.028;4.218;2022-07-29T12:12:40;27.70;59.60
62912;DHT22;49111;51.028;4.218;2022-07-29T12:15:17;27.80;60.20
62912;DHT22;49111;51.028;4.218;2022-07-29T12:17:45;28.00;59.90
62912;DHT22;49111;51.028;4.218;2022-07-29T12:20:12;28.00;59.80
62912;DHT22;49111;51.028;4.218;2022-07-29T12:22:40;28.00;59.30
62912;DHT22;49111;51.028;4.218;2022-07-29T12:25:09;28.10;58.80
62912;DHT22;49111;51.028;4.218;2022-07-29T12:27:36;28.20;58.60
62912;DHT22;49111;51.028;4.218;2022-07-29T12:30:14;28.30;58.30
62912;DHT22;49111;51.028;4.218;2022-07-29T12:32:43;28.20;57.60
62912;DHT22;49111;51.028;4.218;2022-07-29T12:35:14;28.20;57.40
62912;DHT22;49111;51.028;4.218;2022-07-29T12:37:42;28.00;57.10
62912;DHT22;49111;51.028;4.218;2022-07-29T12:40:11;28.00;58.30
62912;DHT22;49111;51.028;4.218;2022-07-29T12:42:38;28.00;57.20
62912;DHT22;49111;51.028;4.218;2022-07-29T12:45:05;28.10;58.80
62912;DHT22;49111;51.028;4.218;2022-07-29T12:47:32;28.30;58.10
62912;DHT22;49111;51.028;4.218;2022-07-29T12:50:13;28.30;57.50
62912;DHT22;49111;51.028;4.218;2022-07-29T12:52:44;28.40;56.90
62912;DHT22;49111;51.028;4.218;2022-07-29T12:55:11;28.10;57.40
62912;DHT22;49111;51.028;4.218;2022-07-29T12:57:47;28.00;58.20
62912;DHT22;49111;51.028;4.218;2022-07-29T13:00:14;27.90;57.00
62912;DHT22;49111;51.028;4.218;2022-07-29T13:02:42;27.70;58.00
62912;DHT22;49111;51.028;4.218;2022-07-29T13:05:10;27.80;59.00
62912;DHT22;49111;51.028;4.218;2022-07-29T13:07:37;27.70;57.50
62912;DHT22;49111;51.028;4.218;2022-07-29T13:10:14;27.90;59.00
62912;DHT22;49111;51.028;4.218;2022-07-29T13:13:09;28.10;58.80
62912;DHT22;49111;51.028;4.218;2022-07-29T13:15:37;28.50;59.20
62912;DHT22;49111;51.028;4.218;2022-07-29T13:18:05;28.60;56.40
62912;DHT22;49111;51.028;4.218;2022-07-29T13:20:50;28.60;57.00
62912;DHT22;49111;51.028;4.218;2022-07-29T13:23:16;28.70;58.20
62912;DHT22;49111;51.028;4.218;2022-07-29T13:25:41;28.80;57.30
62912;DHT22;49111;51.028;4.218;2022-07-29T13:28:07;28.60;56.60
62912;DHT22;49111;51.028;4.218;2022-07-29T13:30:34;28.60;58.30
62912;DHT22;49111;51.028;4.218;2022-07-29T13:33:00;28.60;56.20
62912;DHT22;49111;51.028;4.218;2022-07-29T13:35:25;28.40;58.00
62912;DHT22;49111;51.028;4.218;2022-07-29T13:37:54;28.30;57.40
62912;DHT22;49111;51.028;4.218;2022-07-29T13:40:19;28.30;57.70
62912;DHT22;49111;51.028;4.218;2022-07-29T13:42:45;28.10;58.20
62912;DHT22;49111;51.028;4.218;2022-07-29T13:45:11;27.90;59.10
62912;DHT22;49111;51.028;4.218;2022-07-29T13:47:37;27.70;58.90
62912;DHT22;49111;51.028;4.218;2022-07-29T13:50:04;27.70;58.50
62912;DHT22;49111;51.028;4.218;2022-07-29T13:52:31;28.00;58.60
62912;DHT22;49111;51.028;4.218;2022-07-29T13:54:56;28.10;58.20
62912;DHT22;49111;51.028;4.218;2022-07-29T13:57:22;28.50;57.80
62912;DHT22;49111;51.028;4.218;2022-07-29T13:59:48;28.60;55.80
62912;DHT22;49111;51.028;4.218;2022-07-29T14:02:14;28.40;55.80
62912;DHT22;49111;51.028;4.218;2022-07-29T14:04:40;28.20;56.70
62912;DHT22;49111;51.028;4.218;2022-07-29T14:07:06;28.30;57.10
62912;DHT22;49111;51.028;4.218;2022-07-29T14:09:32;28.50;57.30
62912;DHT22;49111;51.028;4.218;2022-07-29T14:11:58;28.70;56.80
62912;DHT22;49111;51.028;4.218;2022-07-29T14:14:23;28.80;57.00
62912;DHT22;49111;51.028;4.218;2022-07-29T14:16:49;28.90;56.30
62912;DHT22;49111;51.028;4.218;2022-07-29T14:19:15;29.10;55.10
62912;DHT22;49111;51.028;4.218;2022-07-29T14:21:40;29.30;55.40
62912;DHT22;49111;51.028;4.218;2022-07-29T14:24:06;29.20;54.40
62912;DHT22;49111;51.028;4.218;2022-07-29T14:26:32;29.00;54.40
62912;DHT22;49111;51.028;4.218;2022-07-29T14:28:58;29.10;56.20
62912;DHT22;49111;51.028;4.218;2022-07-29T14:31:24;29.10;57.10
62912;DHT22;49111;51.028;4.218;2022-07-29T14:33:49;29.20;56.00
62912;DHT22;49111;51.028;4.218;2022-07-29T14:36:15;29.20;55.40
62912;DHT22;49111;51.028;4.218;2022-07-29T14:38:41;29.30;56.40
62912;DHT22;49111;51.028;4.218;2022-07-29T14:41:07;29.30;54.20
62912;DHT22;49111;51.028;4.218;2022-07-29T14:43:34;29.50;55.60
62912;DHT22;49111;51.028;4.218;2022-07-29T14:46:01;29.50;54.10
62912;DHT22;49111;51.028;4.218;2022-07-29T14:48:27;29.50;54.60
62912;DHT22;49111;51.028;4.218;2022-07-29T14:50:53;29.40;54.10
62912;DHT22;49111;51.028;4.218;2022-07-29T14:53:20;29.40;53.50
62912;DHT22;49111;51.028;4.218;2022-07-29T14:55:45;29.20;53.50
62912;DHT22;49111;51.028;4.218;2022-07-29T14:58:11;29.10;53.80
62912;DHT22;49111;51.028;4.218;2022-07-29T15:00:37;29.00;55.40
62912;DHT22;49111;51.028;4.218;2022-07-29T15:03:04;29.10;55.50
62912;DHT22;49111;51.028;4.218;2022-07-29T15:05:30;29.20;55.90
62912;DHT22;49111;51.028;4.218;2022-07-29T15:07:58;29.30;54.90
62912;DHT22;49111;51.028;4.218;2022-07-29T15:10:24;29.20;54.70
62912;DHT22;49111;51.028;4.218;2022-07-29T15:12:53;29.30;54.00
62912;DHT22;49111;51.028;4.218;2022-07-29T15:15:18;29.40;54.00
62912;DHT22;49111;51.028;4.218;2022-07-29T15:17:44;29.50;54.40
62912;DHT22;49111;51.028;4.218;2022-07-29T15:20:11;29.70;54.50
62912;DHT22;49111;51.028;4.218;2022-07-29T15:22:37;29.90;54.30
62912;DHT22;49111;51.028;4.218;2022-07-29T15:25:04;30.00;54.70
62912;DHT22;49111;51.028;4.218;2022-07-29T15:27:30;30.10;54.50
62912;DHT22;49111;51.028;4.218;2022-07-29T15:29:56;30.20;53.30
62912;DHT22;49111;51.028;4.218;2022-07-29T15:32:22;30.40;55.10
62912;DHT22;49111;51.028;4.218;2022-07-29T15:34:47;30.30;53.80
62912;DHT22;49111;51.028;4.218;2022-07-29T15:37:13;30.20;53.30
62912;DHT22;49111;51.028;4.218;2022-07-29T15:39:39;29.90;53.10
62912;DHT22;49111;51.028;4.218;2022-07-29T15:42:05;29.90;54.50
62912;DHT22;49111;51.028;4.218;2022-07-29T15:44:30;29.90;52.50
62912;DHT22;49111;51.028;4.218;2022-07-29T15:46:57;29.90;53.70
62912;DHT22;49111;51.028;4.218;2022-07-29T15:49:37;29.90;53.70
62912;DHT22;49111;51.028;4.218;2022-07-29T15:52:06;29.90;52.80
62912;DHT22;49111;51.028;4.218;2022-07-29T15:54:33;29.80;53.40
62912;DHT22;49111;51.028;4.218;2022-07-29T15:56:59;29.60;53.80
62912;DHT22;49111;51.028;4.218;2022-07-29T15:59:25;29.70;54.30
62912;DHT22;49111;51.028;4.218;2022-07-29T16:01:51;29.70;52.60
62912;DHT22;49111;51.028;4.218;2022-07-29T16:04:17;29.50;54.00
62912;DHT22;49111;51.028;4.218;2022-07-29T16:06:44;29.60;53.70
62912;DHT22;49111;51.028;4.218;2022-07-29T16:09:10;29.70;52.80
62912;DHT22;49111;51.028;4.218;2022-07-29T16:11:36;29.70;53.50
62912;DHT22;49111;51.028;4.218;2022-07-29T16:14:02;29.60;53.90
62912;DHT22;49111;51.028;4.218;2022-07-29T16:16:28;29.50;55.10
62912;DHT22;49111;51.028;4.218;2022-07-29T16:18:53;29.60;54.50
62912;DHT22;49111;51.028;4.218;2022-07-29T16:21:20;29.70;54.80